createdAt,value
2018-12-19T00:00:03.265Z,7.00
2018-12-19T00:02:05.877Z,7.40
2018-12-19T00:04:08.449Z,7.50
2018-12-19T00:06:11.109Z,7.10
2018-12-19T00:08:13.961Z,6.50
2018-12-19T00:10:16.511Z,6.80
2018-12-19T00:12:19.207Z,6.20
2018-12-19T00:14:21.738Z,6.10
2018-12-19T00:16:24.433Z,6.00
2018-12-19T00:18:26.986Z,6.30
2018-12-19T00:20:29.600Z,6.40
2018-12-19T00:22:32.139Z,6.00
2018-12-19T00:24:34.666Z,6.40
2018-12-19T00:26:37.385Z,7.00
2018-12-19T00:28:39.925Z,7.10
2018-12-19T00:30:42.524Z,7.50
2018-12-19T00:32:45.449Z,7.70
2018-12-19T00:34:48.018Z,7.90
2018-12-19T00:36:50.529Z,7.80
2018-12-19T00:38:53.089Z,7.70
2018-12-19T00:40:55.620Z,8.00
2018-12-19T00:42:58.258Z,8.00
2018-12-19T00:45:00.909Z,7.70
2018-12-19T00:47:03.562Z,6.80
2018-12-19T00:49:06.151Z,7.00
2018-12-19T00:51:08.693Z,7.00
2018-12-19T00:53:11.445Z,6.70
2018-12-19T00:55:14.117Z,6.90
2018-12-19T00:57:16.786Z,7.00
2018-12-19T00:59:19.558Z,6.90
2018-12-19T01:01:22.190Z,7.10
2018-12-19T01:03:24.765Z,7.20
2018-12-19T01:05:27.421Z,7.20
2018-12-19T01:07:29.942Z,7.30
2018-12-19T01:09:32.481Z,7.30
2018-12-19T01:11:35.118Z,7.40
2018-12-19T01:13:38.671Z,7.60
2018-12-19T01:15:41.321Z,7.70
2018-12-19T01:17:43.976Z,7.70
2018-12-19T01:19:46.630Z,7.30
2018-12-19T01:21:49.140Z,6.80
2018-12-19T01:23:51.858Z,6.50
2018-12-19T01:25:54.481Z,6.10
2018-12-19T01:27:56.979Z,6.30
2018-12-19T01:29:59.562Z,6.70
2018-12-19T01:32:02.353Z,7.00
2018-12-19T01:34:04.956Z,6.00
2018-12-19T01:36:07.550Z,6.90
2018-12-19T01:38:10.294Z,6.50
2018-12-19T01:40:13.020Z,6.00
2018-12-19T01:42:15.565Z,5.80
2018-12-19T01:44:18.199Z,6.40
2018-12-19T01:46:20.762Z,6.60
2018-12-19T01:48:23.497Z,6.80
2018-12-19T01:50:26.146Z,6.80
2018-12-19T01:52:28.786Z,7.00
2018-12-19T01:54:31.485Z,7.00
2018-12-19T01:56:34.034Z,7.20
2018-12-19T01:58:36.679Z,7.30
2018-12-19T02:00:39.208Z,7.10
2018-12-19T02:02:41.746Z,7.00
2018-12-19T02:04:44.499Z,7.00
2018-12-19T02:06:47.106Z,6.90
2018-12-19T02:08:49.658Z,6.90
2018-12-19T02:10:52.179Z,7.10
2018-12-19T02:12:54.840Z,6.90
2018-12-19T02:14:57.361Z,7.20
2018-12-19T02:16:59.913Z,7.40
2018-12-19T02:19:02.434Z,7.30
2018-12-19T02:21:05.220Z,6.30
2018-12-19T02:23:07.856Z,6.10
2018-12-19T02:25:10.374Z,5.40
2018-12-19T02:27:12.976Z,5.90
2018-12-19T02:29:15.485Z,6.10
2018-12-19T02:31:18.088Z,6.30
2018-12-19T02:33:20.731Z,6.50
2018-12-19T02:35:23.329Z,6.40
2018-12-19T02:37:25.942Z,6.40
2018-12-19T02:39:28.643Z,6.20
2018-12-19T02:41:32.073Z,6.10
2018-12-19T02:43:34.664Z,6.40
2018-12-19T02:45:37.258Z,6.80
2018-12-19T02:47:39.938Z,7.00
2018-12-19T02:49:42.620Z,7.20
2018-12-19T02:51:45.188Z,7.10
2018-12-19T02:55:56.589Z,6.50
2018-12-19T02:57:59.169Z,6.40
2018-12-19T03:00:01.712Z,6.50
2018-12-19T03:02:04.459Z,6.70
2018-12-19T03:04:07.033Z,6.80
2018-12-19T03:06:09.679Z,7.10
2018-12-19T03:08:12.214Z,7.00
2018-12-19T03:10:14.733Z,7.00
2018-12-19T03:12:17.849Z,7.20
2018-12-19T03:14:20.494Z,7.20
2018-12-19T03:16:23.238Z,7.30
2018-12-19T03:18:25.829Z,7.20
2018-12-19T03:20:28.461Z,7.30
2018-12-19T03:22:31.169Z,7.20
2018-12-19T03:24:33.761Z,7.20
2018-12-19T03:26:36.373Z,7.10
2018-12-19T03:28:38.936Z,6.90
2018-12-19T03:30:41.483Z,6.80
2018-12-19T03:32:44.039Z,6.90
2018-12-19T03:34:46.666Z,6.90
2018-12-19T03:36:49.249Z,6.70
2018-12-19T03:38:51.807Z,6.70
2018-12-19T03:40:54.482Z,6.70
2018-12-19T03:42:57.139Z,6.30
2018-12-19T03:44:59.665Z,6.30
2018-12-19T03:47:02.293Z,6.60
2018-12-19T03:49:04.884Z,6.40
2018-12-19T03:51:07.397Z,6.70
2018-12-19T03:53:10.025Z,6.80
2018-12-19T03:55:12.562Z,7.00
2018-12-19T03:57:15.298Z,7.10
2018-12-19T03:59:17.805Z,7.20
2018-12-19T04:01:20.347Z,7.30
2018-12-19T04:03:22.957Z,6.80
2018-12-19T04:05:27.073Z,6.80
2018-12-19T04:07:29.750Z,6.10
2018-12-19T04:09:32.403Z,5.60
2018-12-19T04:11:35.014Z,5.80
2018-12-19T04:13:37.646Z,5.90
2018-12-19T04:15:40.202Z,6.30
2018-12-19T04:17:42.813Z,6.50
2018-12-19T04:19:45.330Z,6.60
2018-12-19T04:21:47.906Z,6.80
2018-12-19T04:23:50.508Z,6.60
2018-12-19T04:25:53.169Z,6.30
2018-12-19T04:27:55.802Z,6.40
2018-12-19T04:29:58.629Z,6.70
2018-12-19T04:32:01.205Z,7.00
2018-12-19T04:34:03.761Z,7.30
2018-12-19T04:36:06.433Z,7.30
2018-12-19T04:38:09.073Z,7.20
2018-12-19T04:40:11.767Z,7.10
2018-12-19T04:42:14.291Z,7.00
2018-12-19T04:44:16.880Z,6.80
2018-12-19T04:46:19.412Z,7.10
2018-12-19T04:48:22.164Z,7.20
2018-12-19T04:50:24.734Z,7.20
2018-12-19T04:52:27.439Z,7.40
2018-12-19T04:54:30.014Z,6.80
2018-12-19T04:56:32.561Z,7.00
2018-12-19T04:58:35.145Z,6.90
2018-12-19T05:00:37.669Z,7.20
2018-12-19T05:02:40.273Z,7.50
2018-12-19T05:04:42.855Z,7.70
2018-12-19T05:06:45.405Z,7.60
2018-12-19T05:08:48.300Z,7.80
2018-12-19T05:10:50.866Z,7.80
2018-12-19T05:12:53.465Z,7.70
2018-12-19T05:14:56.030Z,7.80
2018-12-19T05:16:58.594Z,7.80
2018-12-19T05:19:01.248Z,7.80
2018-12-19T05:21:03.812Z,7.70
2018-12-19T05:23:06.350Z,7.60
2018-12-19T05:25:11.813Z,7.70
2018-12-19T05:27:14.346Z,6.90
2018-12-19T05:29:16.917Z,6.70
2018-12-19T05:31:19.522Z,7.00
2018-12-19T05:33:22.309Z,7.30
2018-12-19T05:35:24.897Z,7.40
2018-12-19T05:37:27.528Z,7.50
2018-12-19T05:39:30.089Z,7.60
2018-12-19T05:41:32.715Z,7.60
2018-12-19T05:43:35.421Z,7.20
2018-12-19T05:45:38.081Z,6.70
2018-12-19T05:47:40.930Z,6.50
2018-12-19T05:49:43.825Z,6.60
2018-12-19T05:51:46.397Z,6.70
2018-12-19T05:53:48.912Z,7.00
2018-12-19T05:55:51.439Z,7.10
2018-12-19T05:57:54.150Z,7.10
2018-12-19T05:59:56.704Z,7.00
2018-12-19T06:01:59.714Z,7.20
2018-12-19T06:04:02.610Z,7.40
2018-12-19T06:06:05.442Z,7.60
2018-12-19T06:08:08.073Z,7.60
2018-12-19T06:10:10.895Z,7.50
2018-12-19T06:12:13.452Z,7.50
2018-12-19T06:14:16.030Z,7.60
2018-12-19T06:16:18.689Z,7.70
2018-12-19T06:18:21.210Z,7.60
2018-12-19T06:20:23.801Z,7.00
2018-12-19T06:22:26.345Z,7.20
2018-12-19T06:24:28.909Z,7.20
2018-12-19T06:26:31.527Z,7.40
2018-12-19T06:28:34.150Z,7.20
2018-12-19T06:30:36.914Z,7.40
2018-12-19T06:32:39.533Z,7.40
2018-12-19T06:34:42.171Z,7.20
2018-12-19T06:36:44.870Z,7.30
2018-12-19T06:38:47.390Z,7.40
2018-12-19T06:40:50.081Z,7.60
2018-12-19T06:42:52.808Z,7.60
2018-12-19T06:44:55.321Z,7.60
2018-12-19T06:46:57.850Z,7.30
2018-12-19T06:49:00.426Z,7.10
2018-12-19T06:51:03.016Z,7.40
2018-12-19T06:53:05.709Z,7.60
2018-12-19T06:55:08.354Z,7.40
2018-12-19T06:57:10.955Z,7.50
2018-12-19T06:59:13.485Z,7.70
2018-12-19T07:01:16.132Z,7.70
2018-12-19T07:03:18.665Z,7.90
2018-12-19T07:05:21.198Z,7.80
2018-12-19T07:07:23.851Z,7.90
2018-12-19T07:09:26.417Z,8.00
2018-12-19T07:11:29.221Z,8.00
2018-12-19T07:13:31.734Z,7.90
2018-12-19T07:15:34.325Z,7.90
2018-12-19T07:17:36.991Z,8.00
2018-12-19T07:19:39.733Z,8.00
2018-12-19T07:21:42.249Z,7.90
2018-12-19T07:23:44.851Z,7.80
2018-12-19T07:25:47.594Z,7.70
2018-12-19T07:27:50.361Z,7.60
2018-12-19T07:29:52.896Z,7.80
2018-12-19T07:31:55.979Z,7.90
2018-12-19T07:33:58.538Z,8.00
2018-12-19T07:36:01.271Z,7.90
2018-12-19T07:38:03.908Z,7.70
2018-12-19T07:40:06.563Z,7.90
2018-12-19T07:42:09.664Z,7.80
2018-12-19T07:44:12.192Z,7.80
2018-12-19T07:46:19.814Z,7.90
2018-12-19T07:48:19.732Z,7.90
2018-12-19T07:50:22.367Z,8.00
2018-12-19T07:52:24.888Z,8.00
2018-12-19T07:54:27.502Z,8.10
2018-12-19T07:56:30.353Z,8.20
2018-12-19T07:58:32.896Z,8.30
2018-12-19T08:00:35.427Z,8.20
2018-12-19T08:02:37.957Z,8.10
2018-12-19T08:04:41.045Z,8.00
2018-12-19T08:06:43.617Z,8.10
2018-12-19T08:08:46.205Z,8.30
2018-12-19T08:10:52.214Z,8.30
2018-12-19T08:12:53.413Z,8.00
2018-12-19T08:15:02.719Z,7.90
2018-12-19T08:17:05.308Z,7.60
2018-12-19T08:19:07.981Z,7.80
2018-12-19T08:21:10.671Z,8.00
2018-12-19T08:23:13.302Z,8.20
2018-12-19T08:25:15.891Z,8.40
2018-12-19T08:27:18.701Z,8.50
2018-12-19T08:29:21.445Z,8.40
2018-12-19T08:31:24.205Z,8.40
2018-12-19T08:33:26.754Z,8.30
2018-12-19T08:35:29.362Z,8.40
2018-12-19T08:37:31.934Z,8.30
2018-12-19T08:39:34.912Z,7.50
2018-12-19T08:41:39.188Z,7.80
2018-12-19T08:43:41.705Z,8.00
2018-12-19T08:45:44.694Z,7.50
2018-12-19T08:47:47.366Z,7.80
2018-12-19T08:49:49.886Z,8.00
2018-12-19T08:51:52.558Z,8.10
2018-12-19T08:53:55.150Z,7.90
2018-12-19T08:55:57.734Z,7.50
2018-12-19T08:58:00.333Z,7.80
2018-12-19T09:00:03.154Z,8.00
2018-12-19T09:02:05.823Z,8.10
2018-12-19T09:04:08.485Z,8.10
2018-12-19T09:06:11.138Z,8.20
2018-12-19T09:08:13.666Z,8.30
2018-12-19T09:10:16.302Z,8.20
2018-12-19T09:12:18.842Z,8.30
2018-12-19T09:14:21.347Z,8.00
2018-12-19T09:16:23.939Z,7.80
2018-12-19T09:18:26.469Z,7.90
2018-12-19T09:20:29.133Z,7.90
2018-12-19T09:22:31.655Z,8.10
2018-12-19T09:24:34.397Z,8.20
2018-12-19T09:26:37.009Z,8.40
2018-12-19T09:28:39.601Z,8.50
2018-12-19T09:30:42.194Z,8.50
2018-12-19T09:32:44.717Z,8.70
2018-12-19T09:34:47.775Z,8.80
2018-12-19T09:36:50.321Z,8.90
2018-12-19T09:38:52.902Z,8.80
2018-12-19T09:40:55.415Z,8.70
2018-12-19T09:42:57.993Z,8.80
2018-12-19T09:45:00.543Z,8.90
2018-12-19T09:47:03.081Z,9.00
2018-12-19T09:49:12.191Z,9.10
2018-12-19T09:51:10.365Z,9.30
2018-12-19T09:53:13.110Z,9.30
2018-12-19T09:55:15.734Z,9.30
2018-12-19T09:57:19.202Z,9.30
2018-12-19T09:59:21.745Z,9.40
2018-12-19T10:01:24.526Z,9.40
2018-12-19T10:03:27.089Z,9.40
2018-12-19T10:05:29.821Z,9.50
2018-12-19T10:07:32.519Z,9.50
2018-12-19T10:09:35.365Z,9.40
2018-12-19T10:11:37.891Z,9.20
2018-12-19T10:13:40.488Z,9.20
2018-12-19T10:15:43.236Z,9.30
2018-12-19T10:17:46.044Z,9.20
2018-12-19T10:19:48.561Z,9.20
2018-12-19T10:21:51.233Z,8.90
2018-12-19T10:23:53.840Z,8.90
2018-12-19T10:26:12.879Z,9.10
2018-12-19T10:28:17.427Z,9.00
2018-12-19T10:30:20.049Z,9.00
2018-12-19T10:32:22.700Z,9.20
2018-12-19T10:34:25.225Z,9.30
2018-12-19T10:36:33.452Z,9.40
2018-12-19T10:38:36.265Z,9.20
2018-12-19T10:40:38.951Z,8.90
2018-12-19T10:42:41.466Z,8.90
2018-12-19T10:44:44.055Z,9.00
2018-12-19T10:46:46.853Z,9.20
2018-12-19T10:48:49.515Z,9.30
2018-12-19T10:50:52.368Z,9.30
2018-12-19T10:52:55.242Z,9.40
2018-12-19T10:54:57.768Z,9.20
2018-12-19T10:57:00.328Z,7.90
2018-12-19T10:59:02.907Z,7.70
2018-12-19T11:01:05.462Z,7.90
2018-12-19T11:03:08.019Z,7.80
2018-12-19T11:05:10.649Z,7.60
2018-12-19T11:07:13.365Z,7.60
2018-12-19T11:09:15.893Z,8.10
2018-12-19T11:11:18.594Z,8.60
2018-12-19T11:13:22.156Z,9.00
2018-12-19T11:15:24.821Z,8.90
2018-12-19T11:17:27.345Z,8.70
2018-12-19T11:19:29.949Z,8.90
2018-12-19T11:21:32.608Z,9.20
2018-12-19T11:23:35.169Z,9.20
2018-12-19T11:25:37.701Z,9.20
2018-12-19T11:27:40.211Z,9.40
2018-12-19T11:29:42.830Z,9.60
2018-12-19T11:31:45.369Z,9.70
2018-12-19T11:33:48.066Z,9.50
2018-12-19T11:35:50.672Z,9.30
2018-12-19T11:37:53.237Z,9.10
2018-12-19T11:39:55.879Z,9.10
2018-12-19T11:41:58.396Z,9.00
2018-12-19T11:44:01.038Z,9.20
2018-12-19T11:46:03.635Z,9.20
2018-12-19T11:48:06.298Z,9.10
2018-12-19T11:50:08.969Z,8.90
2018-12-19T11:52:11.649Z,9.10
2018-12-19T11:54:14.303Z,9.30
2018-12-19T11:56:16.877Z,9.30
2018-12-19T11:58:19.566Z,9.40
2018-12-19T12:00:22.101Z,9.60
2018-12-19T12:02:24.670Z,9.50
2018-12-19T12:04:27.233Z,9.50
2018-12-19T12:06:29.777Z,9.70
2018-12-19T12:08:32.361Z,9.80
2018-12-19T12:10:34.905Z,9.90
2018-12-19T12:12:37.451Z,10.00
2018-12-19T12:14:40.022Z,9.90
2018-12-19T12:16:42.614Z,10.00
2018-12-19T12:18:45.277Z,10.00
2018-12-19T12:20:47.922Z,9.90
2018-12-19T12:22:50.656Z,10.00
2018-12-19T12:24:53.282Z,10.10
2018-12-19T12:26:56.170Z,10.10
2018-12-19T12:28:58.758Z,10.20
2018-12-19T12:31:01.385Z,10.30
2018-12-19T12:33:04.187Z,10.30
2018-12-19T12:35:07.532Z,10.10
2018-12-19T12:37:10.037Z,9.60
2018-12-19T12:39:12.691Z,9.70
2018-12-19T12:41:15.239Z,9.80
2018-12-19T12:43:17.770Z,10.00
2018-12-19T12:45:20.393Z,10.10
2018-12-19T12:47:22.947Z,10.20
2018-12-19T12:49:25.619Z,10.30
2018-12-19T12:51:28.148Z,10.20
2018-12-19T12:53:30.656Z,10.20
2018-12-19T12:55:33.238Z,10.10
2018-12-19T12:57:35.900Z,10.20
2018-12-19T12:59:38.630Z,10.30
2018-12-19T13:01:41.824Z,10.30
2018-12-19T13:03:44.467Z,10.40
2018-12-19T13:05:47.155Z,10.40
2018-12-19T13:07:49.686Z,10.50
2018-12-19T13:09:52.286Z,10.50
2018-12-19T13:11:58.856Z,10.60
2018-12-19T13:13:59.536Z,10.50
2018-12-19T13:16:02.253Z,10.60
2018-12-19T13:18:05.062Z,10.60
2018-12-19T13:20:07.589Z,10.60
2018-12-19T13:22:10.208Z,10.60
2018-12-19T13:24:13.526Z,10.70
2018-12-19T13:26:16.271Z,10.60
2018-12-19T13:28:18.872Z,10.60
2018-12-19T13:30:21.413Z,10.60
2018-12-19T13:32:24.141Z,10.70
2018-12-19T13:34:26.653Z,10.70
2018-12-19T13:36:30.647Z,10.70
2018-12-19T13:38:33.257Z,10.60
2018-12-19T13:40:35.842Z,10.50
2018-12-19T13:42:38.429Z,10.60
2018-12-19T13:44:41.048Z,10.60
2018-12-19T13:46:43.573Z,10.70
2018-12-19T13:48:46.270Z,10.70
2018-12-19T13:50:48.883Z,10.70
2018-12-19T13:52:51.420Z,10.70
2018-12-19T13:54:54.274Z,10.70
2018-12-19T13:56:56.902Z,10.70
2018-12-19T13:58:59.702Z,10.80
2018-12-19T14:01:02.353Z,10.80
2018-12-19T14:03:04.873Z,10.80
2018-12-19T14:05:07.713Z,10.80
2018-12-19T14:07:10.389Z,10.80
2018-12-19T14:09:13.001Z,10.30
2018-12-19T14:11:15.537Z,10.20
2018-12-19T14:13:18.067Z,10.20
2018-12-19T14:15:21.338Z,10.20
2018-12-19T14:17:23.928Z,10.20
2018-12-19T14:19:26.649Z,10.20
2018-12-19T14:21:29.893Z,10.30
2018-12-19T14:23:32.433Z,10.40
2018-12-19T14:25:35.061Z,10.50
2018-12-19T14:27:37.663Z,10.50
2018-12-19T14:29:40.387Z,10.50
2018-12-19T14:31:43.028Z,10.50
2018-12-19T14:33:45.842Z,10.60
2018-12-19T14:35:48.466Z,10.60
2018-12-19T14:37:51.041Z,10.50
2018-12-19T14:39:53.670Z,10.40
2018-12-19T14:41:56.268Z,10.30
2018-12-19T14:43:58.878Z,10.40
2018-12-19T14:46:01.441Z,10.40
2018-12-19T14:48:04.173Z,10.30
2018-12-19T14:50:06.942Z,10.40
2018-12-19T14:52:09.612Z,10.50
2018-12-19T14:54:12.156Z,10.50
2018-12-19T14:56:14.664Z,10.50
2018-12-19T14:58:17.197Z,10.50
2018-12-19T15:00:19.872Z,10.40
2018-12-19T15:02:22.514Z,10.40
2018-12-19T15:04:25.126Z,10.40
2018-12-19T15:06:27.741Z,10.40
2018-12-19T15:08:30.285Z,10.40
2018-12-19T15:10:33.527Z,10.30
2018-12-19T15:12:36.143Z,10.40
2018-12-19T15:14:38.872Z,10.30
2018-12-19T15:16:41.547Z,10.30
2018-12-19T15:18:44.117Z,10.30
2018-12-19T15:20:46.661Z,10.30
2018-12-19T15:22:49.217Z,10.30
2018-12-19T15:24:51.935Z,10.30
2018-12-19T15:26:54.459Z,10.20
2018-12-19T15:28:57.097Z,10.20
2018-12-19T15:30:59.773Z,10.20
2018-12-19T15:33:02.306Z,10.10
2018-12-19T15:35:04.978Z,10.00
2018-12-19T15:37:07.534Z,10.00
2018-12-19T15:39:10.178Z,10.00
2018-12-19T15:41:12.801Z,10.00
2018-12-19T15:43:15.489Z,10.10
2018-12-19T15:45:18.104Z,10.10
2018-12-19T15:47:20.668Z,10.20
2018-12-19T15:49:23.261Z,10.20
2018-12-19T15:51:25.789Z,10.20
2018-12-19T15:53:28.359Z,10.20
2018-12-19T15:55:31.005Z,10.30
2018-12-19T15:57:33.806Z,10.30
2018-12-19T15:59:36.357Z,10.20
2018-12-19T16:01:38.950Z,10.20
2018-12-19T16:03:41.493Z,10.20
2018-12-19T16:05:44.057Z,10.20
2018-12-19T16:07:46.654Z,10.20
2018-12-19T16:09:49.509Z,10.20
2018-12-19T16:11:52.038Z,10.10
2018-12-19T16:13:54.576Z,10.10
2018-12-19T16:15:58.229Z,10.10
2018-12-19T16:18:00.798Z,10.10
2018-12-19T16:20:04.248Z,9.80
2018-12-19T16:22:06.815Z,9.70
2018-12-19T16:24:09.377Z,9.80
2018-12-19T16:26:11.998Z,9.80
2018-12-19T16:28:14.546Z,9.50
2018-12-19T16:30:17.113Z,9.50
2018-12-19T16:32:21.357Z,9.10
2018-12-19T16:34:23.890Z,9.00
2018-12-19T16:36:26.493Z,9.30
2018-12-19T16:38:29.138Z,9.50
2018-12-19T16:40:31.797Z,9.60
2018-12-19T16:42:34.406Z,9.70
2018-12-19T16:44:37.075Z,9.80
2018-12-19T16:46:39.647Z,9.80
2018-12-19T16:48:42.408Z,9.90
2018-12-19T16:50:44.990Z,9.90
2018-12-19T16:52:47.532Z,9.70
2018-12-19T16:54:50.070Z,9.70
2018-12-19T16:56:52.741Z,9.80
2018-12-19T16:58:55.345Z,9.90
2018-12-19T17:00:57.965Z,9.90
2018-12-19T17:03:00.569Z,10.00
2018-12-19T17:05:03.830Z,10.00
2018-12-19T17:07:06.417Z,10.10
2018-12-19T17:09:09.006Z,10.10
2018-12-19T17:11:11.686Z,10.00
2018-12-19T17:13:14.295Z,10.00
2018-12-19T17:15:16.873Z,10.00
2018-12-19T17:17:19.618Z,10.00
2018-12-19T17:19:22.322Z,10.00
2018-12-19T17:21:24.870Z,10.00
2018-12-19T17:23:27.427Z,10.10
2018-12-19T17:25:30.062Z,10.00
2018-12-19T17:27:32.678Z,10.00
2018-12-19T17:29:35.212Z,10.00
2018-12-19T17:31:37.830Z,10.00
2018-12-19T17:33:40.486Z,10.10
2018-12-19T17:35:43.026Z,10.10
2018-12-19T17:37:45.579Z,10.10
2018-12-19T17:39:48.123Z,10.10
2018-12-19T17:41:50.777Z,10.10
2018-12-19T17:43:53.416Z,10.00
2018-12-19T17:45:55.997Z,9.80
2018-12-19T17:47:58.705Z,9.80
2018-12-19T17:50:01.361Z,9.90
2018-12-19T17:52:04.073Z,10.00
2018-12-19T17:54:06.615Z,10.00
2018-12-19T17:56:09.182Z,10.00
2018-12-19T17:58:11.761Z,9.90
2018-12-19T18:00:14.346Z,10.00
2018-12-19T18:02:17.859Z,10.00
2018-12-19T18:04:20.407Z,9.80
2018-12-19T18:06:22.924Z,9.80
2018-12-19T18:08:25.455Z,9.90
2018-12-19T18:10:28.530Z,10.00
2018-12-19T18:12:31.096Z,10.10
2018-12-19T18:14:33.666Z,10.10
2018-12-19T18:16:36.237Z,10.20
2018-12-19T18:18:39.088Z,10.20
2018-12-19T18:20:42.071Z,10.20
2018-12-19T18:22:44.606Z,10.20
2018-12-19T18:24:47.178Z,10.10
2018-12-19T18:26:50.050Z,10.10
2018-12-19T18:28:52.873Z,10.10
2018-12-19T18:30:55.390Z,10.00
2018-12-19T18:32:58.170Z,9.90
2018-12-19T18:35:00.702Z,9.80
2018-12-19T18:37:03.262Z,9.70
2018-12-19T18:39:07.995Z,9.60
2018-12-19T18:41:10.575Z,9.70
2018-12-19T18:43:13.297Z,9.80
2018-12-19T18:45:15.946Z,9.90
2018-12-19T18:47:18.534Z,10.00
2018-12-19T18:49:21.061Z,10.00
2018-12-19T18:51:23.717Z,10.00
2018-12-19T18:53:26.392Z,10.10
2018-12-19T18:55:29.084Z,10.10
2018-12-19T18:57:31.697Z,10.10
2018-12-19T18:59:34.275Z,10.10
2018-12-19T19:01:36.930Z,10.10
2018-12-19T19:03:39.673Z,10.10
2018-12-19T19:05:42.238Z,10.10
2018-12-19T19:07:44.848Z,10.10
2018-12-19T19:09:49.027Z,10.10
2018-12-19T19:11:51.831Z,10.00
2018-12-19T19:13:54.708Z,9.90
2018-12-19T19:15:57.305Z,9.90
2018-12-19T19:18:00.046Z,10.00
2018-12-19T19:20:02.697Z,10.00
2018-12-19T19:22:05.301Z,10.00
2018-12-19T19:24:07.902Z,10.00
2018-12-19T19:26:10.835Z,10.00
2018-12-19T19:28:13.595Z,10.00
2018-12-19T19:30:17.518Z,10.00
2018-12-19T19:32:20.244Z,10.00
2018-12-19T19:34:25.159Z,10.00
2018-12-19T19:36:27.495Z,10.00
2018-12-19T19:38:30.169Z,10.00
2018-12-19T19:40:32.819Z,10.00
2018-12-19T19:42:35.441Z,10.00
2018-12-19T19:44:38.020Z,10.00
2018-12-19T19:46:40.793Z,10.00
2018-12-19T19:48:43.579Z,10.00
2018-12-19T19:50:46.279Z,9.90
2018-12-19T19:52:50.728Z,10.00
2018-12-19T19:54:53.405Z,10.00
2018-12-19T19:56:56.067Z,9.90
2018-12-19T19:58:58.759Z,9.90
2018-12-19T20:01:01.386Z,9.90
2018-12-19T20:03:04.102Z,10.00
2018-12-19T20:05:09.428Z,10.00
2018-12-19T20:07:11.939Z,9.80
2018-12-19T20:09:14.501Z,9.70
2018-12-19T20:11:17.122Z,9.80
2018-12-19T20:13:19.666Z,9.80
2018-12-19T20:15:22.365Z,9.90
2018-12-19T20:17:26.474Z,10.00
2018-12-19T20:19:29.715Z,10.00
2018-12-19T20:21:32.612Z,10.00
2018-12-19T20:23:35.257Z,10.00
2018-12-19T20:25:37.927Z,10.00
2018-12-19T20:27:40.800Z,10.00
2018-12-19T20:29:43.471Z,9.90
2018-12-19T20:31:46.047Z,9.80
2018-12-19T20:33:48.620Z,9.70
2018-12-19T20:35:51.192Z,9.60
2018-12-19T20:37:53.766Z,9.70
2018-12-19T20:39:56.548Z,9.80
2018-12-19T20:41:59.118Z,9.00
2018-12-19T20:44:01.755Z,8.70
2018-12-19T20:46:04.377Z,8.90
2018-12-19T20:48:06.994Z,8.90
2018-12-19T20:50:09.693Z,9.20
2018-12-19T20:52:12.298Z,9.40
2018-12-19T20:54:14.836Z,9.60
2018-12-19T20:56:17.431Z,9.70
2018-12-19T20:58:20.103Z,9.80
2018-12-19T21:00:22.786Z,9.80
2018-12-19T21:02:25.499Z,9.80
2018-12-19T21:04:28.003Z,9.80
2018-12-19T21:06:30.762Z,9.80
2018-12-19T21:08:33.362Z,9.80
2018-12-19T21:10:35.959Z,9.60
2018-12-19T21:12:38.496Z,9.70
2018-12-19T21:14:41.192Z,9.80
2018-12-19T21:16:49.445Z,9.90
2018-12-19T21:18:52.024Z,10.00
2018-12-19T21:20:54.664Z,9.60
2018-12-19T21:22:57.302Z,9.60
2018-12-19T21:24:59.849Z,9.70
2018-12-19T21:27:02.378Z,9.80
2018-12-19T21:29:04.938Z,9.90
2018-12-19T21:31:07.489Z,9.70
2018-12-19T21:33:13.992Z,9.70
2018-12-19T21:35:14.830Z,9.80
2018-12-19T21:37:17.382Z,9.90
2018-12-19T21:39:20.090Z,9.90
2018-12-19T21:41:22.760Z,9.60
2018-12-19T21:43:25.483Z,9.40
2018-12-19T21:45:28.117Z,9.40
2018-12-19T21:47:30.839Z,9.50
2018-12-19T21:49:33.582Z,9.50
2018-12-19T21:51:36.198Z,9.60
2018-12-19T21:53:38.807Z,9.80
2018-12-19T21:55:41.505Z,9.90
2018-12-19T21:57:44.073Z,9.90
2018-12-19T21:59:46.824Z,9.90
2018-12-19T22:01:49.523Z,9.80
2018-12-19T22:03:52.178Z,9.90
2018-12-19T22:05:54.920Z,9.90
2018-12-19T22:07:57.517Z,9.90
2018-12-19T22:10:00.231Z,9.90
2018-12-19T22:12:02.857Z,10.00
2018-12-19T22:14:05.501Z,9.90
2018-12-19T22:16:10.158Z,9.70
2018-12-19T22:18:18.448Z,9.80
2018-12-19T22:20:21.219Z,9.90
2018-12-19T22:22:23.909Z,9.90
2018-12-19T22:24:26.558Z,10.00
2018-12-19T22:26:30.212Z,10.00
2018-12-19T22:28:33.740Z,10.00
2018-12-19T22:30:36.292Z,9.80
2018-12-19T22:32:38.883Z,9.80
2018-12-19T22:34:41.399Z,9.80
2018-12-19T22:36:44.031Z,9.90
2018-12-19T22:38:46.876Z,9.70
2018-12-19T22:40:49.533Z,9.70
2018-12-19T22:42:52.210Z,9.80
2018-12-19T22:44:54.867Z,10.00
2018-12-19T22:46:57.496Z,10.00
2018-12-19T22:49:00.274Z,10.10
2018-12-19T22:51:02.913Z,10.10
2018-12-19T22:53:05.678Z,10.10
2018-12-19T22:55:08.684Z,10.20
2018-12-19T22:57:11.263Z,10.20
2018-12-19T22:59:13.947Z,10.20
2018-12-19T23:01:22.244Z,10.20
2018-12-19T23:03:26.921Z,10.20
2018-12-19T23:05:35.105Z,10.20
2018-12-19T23:07:37.805Z,10.20
2018-12-19T23:09:40.407Z,10.20
2018-12-19T23:11:43.026Z,10.20
2018-12-19T23:13:45.799Z,10.10
2018-12-19T23:15:48.375Z,10.10
2018-12-19T23:17:53.119Z,10.10
2018-12-19T23:19:55.679Z,10.10
2018-12-19T23:21:58.358Z,10.10
2018-12-19T23:24:01.042Z,10.20
2018-12-19T23:26:03.841Z,10.20
2018-12-19T23:28:06.479Z,10.10
2018-12-19T23:30:09.220Z,10.10
2018-12-19T23:32:13.859Z,10.10
2018-12-19T23:34:16.475Z,10.10
2018-12-19T23:36:19.126Z,9.90
2018-12-19T23:38:21.866Z,9.90
2018-12-19T23:40:24.495Z,9.90
2018-12-19T23:42:27.327Z,9.80
2018-12-19T23:44:31.888Z,9.90
2018-12-19T23:46:34.616Z,9.70
2018-12-19T23:48:37.321Z,9.70
2018-12-19T23:50:40.026Z,9.60
2018-12-19T23:52:42.702Z,9.70
2018-12-19T23:54:45.307Z,9.90
2018-12-19T23:56:47.872Z,9.70
2018-12-19T23:58:50.606Z,9.50
